Time;durP1;ratioP1;P1;durP2;ratioP2;P2;SDS_P1;SDS_P2;PMS_P1;PMS_P2;Temp;Humidity;BMP_temperature;BMP_pressure;BME280_temperature;BME280_humidity;BME280_pressure;Samples;Min_cycle;Max_cycle;Signal;HPM_P1;HPM_P2
2023/03/06 00:00:45;;;;;;;0.20;0.10;;;;;;;-2.29;60.76;99851.03;4970674;28;20518;-72
2023/03/06 00:03:12;;;;;;;0.47;0.10;;;;;;;-2.27;60.56;99859.63;4970977;28;20439;-71
2023/03/06 00:05:40;;;;;;;0.17;0.10;;;;;;;-2.28;60.38;99851.91;4970824;28;20052;-71
2023/03/06 00:08:07;;;;;;;0.60;0.10;;;;;;;-2.31;60.47;99846.72;4970322;28;20058;-71
2023/03/06 00:10:34;;;;;;;1.80;0.10;;;;;;;-2.31;60.53;99845.03;4969865;28;20057;-72
2023/03/06 00:13:05;;;;;;;0.20;0.10;;;;;;;-2.32;60.63;99851.00;4970300;28;20058;-72
2023/03/06 00:15:32;;;;;;;0.88;0.10;;;;;;;-2.33;60.67;99853.53;4970423;28;20050;-71
2023/03/06 00:17:59;;;;;;;0.10;0.10;;;;;;;-2.34;60.43;99846.69;4969630;28;20049;-72
2023/03/06 00:20:27;;;;;;;0.70;0.65;;;;;;;-2.36;60.51;99843.22;4971456;28;20065;-71
2023/03/06 00:22:55;;;;;;;0.68;0.10;;;;;;;-2.37;60.48;99847.47;4971027;28;20124;-72
2023/03/06 00:25:23;;;;;;;0.47;0.10;;;;;;;-2.38;60.70;99843.22;4967483;28;20062;-72
2023/03/06 00:27:50;;;;;;;0.20;0.10;;;;;;;-2.39;60.77;99838.06;4968467;28;20142;-72
2023/03/06 00:30:20;;;;;;;0.10;0.00;;;;;;;-2.41;60.70;99845.72;4968363;28;20134;-72
2023/03/06 00:32:47;;;;;;;0.65;0.10;;;;;;;-2.41;60.47;99839.75;4970382;28;20047;-72
2023/03/06 00:35:15;;;;;;;1.45;0.10;;;;;;;-2.46;60.31;99834.53;4967667;28;20050;-71
2023/03/06 00:37:42;;;;;;;0.47;0.10;;;;;;;-2.44;60.64;99834.56;4971204;28;20050;-72
2023/03/06 00:40:12;;;;;;;1.85;0.10;;;;;;;-2.45;60.78;99833.69;4968788;28;20050;-72
2023/03/06 00:42:39;;;;;;;1.85;0.10;;;;;;;-2.45;60.84;99833.69;4969299;28;20055;-72
2023/03/06 00:45:07;;;;;;;0.10;0.08;;;;;;;-2.46;60.96;99831.13;4967980;28;20057;-71
2023/03/06 00:47:36;;;;;;;0.63;0.10;;;;;;;-2.47;60.89;99830.25;4969576;28;20050;-72
2023/03/06 00:50:03;;;;;;;0.10;0.10;;;;;;;-2.52;60.83;99817.38;4969347;28;20061;-72
2023/03/06 00:52:30;;;;;;;3.83;1.17;;;;;;;-2.47;61.01;99824.28;4970325;28;20051;-71
2023/03/06 00:54:57;;;;;;;0.77;0.10;;;;;;;-2.48;61.10;99823.41;4967254;28;20043;-72
2023/03/06 00:57:24;;;;;;;0.20;0.10;;;;;;;-2.50;60.80;99815.72;4969219;28;20351;-72
2023/03/06 00:59:51;;;;;;;0.73;0.10;;;;;;;-2.49;60.83;99816.56;4968369;28;20411;-71
2023/03/06 01:02:18;;;;;;;1.27;0.20;;;;;;;-2.50;61.28;99807.19;4970238;28;20077;-72
2023/03/06 01:04:47;;;;;;;0.38;0.20;;;;;;;-2.50;61.35;99815.72;4968513;28;20492;-72
2023/03/06 01:07:13;;;;;;;0.75;0.10;;;;;;;-2.48;61.43;99815.72;4969862;28;20494;-72
2023/03/06 01:09:40;;;;;;;2.30;0.10;;;;;;;-2.50;61.01;99814.88;4969220;28;20046;-72
2023/03/06 01:12:08;;;;;;;1.73;0.10;;;;;;;-2.52;61.27;99808.84;4967259;28;20049;-72
2023/03/06 01:14:35;;;;;;;0.50;0.10;;;;;;;-2.47;61.14;99824.28;4970123;28;20054;-72
2023/03/06 01:17:02;;;;;;;1.77;0.10;;;;;;;-2.49;61.14;99819.13;4964944;28;20058;-71
2023/03/06 01:19:29;;;;;;;0.95;0.10;;;;;;;-2.48;60.95;99818.28;4966790;28;20056;-72
2023/03/06 01:21:57;;;;;;;0.75;0.10;;;;;;;-2.50;61.24;99810.59;4969910;28;20046;-72
2023/03/06 01:24:25;;;;;;;1.77;0.17;;;;;;;-2.51;61.47;99811.41;4968551;28;20054;-72
2023/03/06 01:26:52;;;;;;;1.70;0.20;;;;;;;-2.49;61.42;99814.00;4968251;28;20135;-71
2023/03/06 01:29:19;;;;;;;1.10;0.10;;;;;;;-2.46;61.50;99813.22;4971004;28;20043;-72
2023/03/06 01:31:46;;;;;;;0.57;0.20;;;;;;;-2.49;61.33;99807.19;4967129;28;20047;-72
2023/03/06 01:34:13;;;;;;;0.17;0.10;;;;;;;-2.46;61.56;99805.53;4969885;28;20054;-71
2023/03/06 01:36:40;;;;;;;0.55;0.13;;;;;;;-2.46;61.18;99803.00;4967555;28;20045;-72
2023/03/06 01:39:08;;;;;;;0.20;0.10;;;;;;;-2.49;61.55;99791.84;4969378;28;20047;-72
2023/03/06 01:41:35;;;;;;;0.10;0.10;;;;;;;-2.46;61.37;99797.88;4966634;28;20061;-72
2023/03/06 01:44:02;;;;;;;0.20;0.10;;;;;;;-2.48;61.16;99795.28;4968397;28;20058;-72
2023/03/06 01:46:40;;;;;;;1.17;0.20;;;;;;;-2.46;61.45;99785.09;4969875;28;20400;-72
2023/03/06 01:49:12;;;;;;;0.17;0.10;;;;;;;-2.50;61.74;99785.03;4969079;28;20495;-72
2023/03/06 01:51:43;;;;;;;0.40;0.10;;;;;;;-2.45;61.50;99784.25;4965792;28;20487;-72
2023/03/06 01:54:19;;;;;;;0.20;0.10;;;;;;;-2.46;61.65;99785.09;4969127;28;20047;-72
2023/03/06 01:56:48;;;;;;;3.90;0.10;;;;;;;-2.45;61.58;99785.09;4964131;28;20054;-72
2023/03/06 01:59:16;;;;;;;0.30;0.10;;;;;;;-2.43;61.91;99790.25;4966829;28;20495;-72
2023/03/06 02:01:44;;;;;;;0.60;0.10;;;;;;;-2.43;61.80;99793.66;4968057;28;20061;-72
2023/03/06 02:04:12;;;;;;;1.00;0.20;;;;;;;-2.43;61.93;99791.09;4969216;28;20058;-71
2023/03/06 02:06:41;;;;;;;2.53;0.05;;;;;;;-2.46;62.04;99782.53;4967809;28;20061;-72
2023/03/06 02:09:09;;;;;;;0.35;0.10;;;;;;;-2.41;62.44;99791.16;4968518;28;20051;-72
2023/03/06 02:11:42;;;;;;;0.20;0.10;;;;;;;-2.40;62.23;99787.75;4967110;28;20149;-71
2023/03/06 02:14:11;;;;;;;0.13;0.10;;;;;;;-2.39;61.95;99781.78;4966863;28;20458;-72
2023/03/06 02:16:38;;;;;;;1.67;0.10;;;;;;;-2.38;62.08;99793.75;4968821;28;20059;-72
2023/03/06 02:19:08;;;;;;;0.80;0.10;;;;;;;-2.38;61.82;99792.06;4965540;28;20143;-71
2023/03/06 02:21:37;;;;;;;1.45;0.10;;;;;;;-2.37;62.09;99785.25;4967465;28;20051;-71
2023/03/06 02:24:19;;;;;;;0.10;0.10;;;;;;;-2.38;62.04;99783.53;4968025;28;20057;-72
2023/03/06 02:26:49;;;;;;;0.20;0.10;;;;;;;-2.45;61.92;99769.75;4968495;28;20057;-72
2023/03/06 02:29:21;;;;;;;0.45;0.20;;;;;;;-2.37;61.94;99785.25;4965320;28;20051;-72
2023/03/06 02:31:49;;;;;;;0.15;0.03;;;;;;;-2.38;62.07;99779.28;4969291;28;20057;-71
2023/03/06 02:34:51;;;;;;;0.32;0.10;;;;;;;-2.38;61.99;99775.84;4972526;28;20068;-72
2023/03/06 02:37:18;;;;;;;0.30;0.10;;;;;;;-2.42;61.94;99772.41;4969500;28;20113;-72
2023/03/06 02:39:48;;;;;;;4.80;1.10;;;;;;;-2.40;62.19;99772.41;4972931;28;20059;-72
2023/03/06 02:42:23;;;;;;;1.27;0.20;;;;;;;-2.42;62.16;99774.06;4972094;28;20046;-72
2023/03/06 02:44:52;;;;;;;2.13;0.10;;;;;;;-2.42;61.90;99784.28;4972393;28;20510;-72
2023/03/06 02:47:19;;;;;;;2.55;0.10;;;;;;;-2.44;62.07;99781.72;4970426;28;20798;-72
2023/03/06 02:49:46;;;;;;;0.32;0.15;;;;;;;-2.46;61.61;99780.81;4972033;28;20395;-72
2023/03/06 02:52:13;;;;;;;0.35;0.10;;;;;;;-2.49;62.31;99781.63;4970991;28;20053;-73
2023/03/06 02:54:41;;;;;;;0.30;0.10;;;;;;;-2.53;62.02;99779.88;4972788;28;20708;-72
2023/03/06 02:57:08;;;;;;;0.68;0.20;;;;;;;-2.51;61.82;99780.72;4971386;28;20057;-72
2023/03/06 02:59:36;;;;;;;0.60;0.20;;;;;;;-2.53;62.02;99782.44;4972325;28;20051;-72
2023/03/06 03:02:03;;;;;;;0.30;0.20;;;;;;;-2.55;62.09;99778.97;4972045;28;20503;-72
2023/03/06 03:04:30;;;;;;;2.17;0.20;;;;;;;-2.55;62.23;99783.22;4971560;28;20125;-72
2023/03/06 03:06:57;;;;;;;1.20;0.10;;;;;;;-2.56;62.00;99779.81;4972009;28;20062;-71
2023/03/06 03:09:24;;;;;;;0.50;0.17;;;;;;;-2.56;62.04;99781.47;4971379;28;20087;-71
2023/03/06 03:11:51;;;;;;;0.15;0.10;;;;;;;-2.59;62.02;99779.75;4971688;28;20058;-73
2023/03/06 03:14:18;;;;;;;1.80;0.10;;;;;;;-2.59;61.81;99783.97;4972375;28;20051;-73
2023/03/06 03:16:46;;;;;;;2.88;0.30;;;;;;;-2.59;61.82;99784.88;4970906;28;20731;-73
2023/03/06 03:19:13;;;;;;;1.73;0.50;;;;;;;-2.60;61.91;99777.16;4968828;28;20084;-72
2023/03/06 03:21:40;;;;;;;2.75;0.63;;;;;;;-2.62;62.17;99774.59;4971951;28;20100;-73
2023/03/06 03:24:08;;;;;;;2.35;0.17;;;;;;;-2.63;62.18;99772.84;4961301;28;20058;-73
2023/03/06 03:26:35;;;;;;;0.30;0.20;;;;;;;-2.63;62.03;99774.56;4971087;28;20562;-73
2023/03/06 03:29:03;;;;;;;1.20;0.20;;;;;;;-2.65;61.83;99773.66;4971399;28;20046;-73
2023/03/06 03:31:31;;;;;;;1.55;0.20;;;;;;;-2.67;62.13;99765.13;4971656;28;20517;-73
2023/03/06 03:34:00;;;;;;;1.00;0.20;;;;;;;-2.67;62.25;99775.34;4971255;28;20061;-73
2023/03/06 03:36:27;;;;;;;0.75;0.20;;;;;;;-2.68;62.33;99773.59;4970074;28;20047;-73
2023/03/06 03:38:56;;;;;;;1.02;0.20;;;;;;;-2.70;62.19;99773.59;4969755;28;20059;-72
2023/03/06 03:41:23;;;;;;;0.13;0.10;;;;;;;-2.71;62.09;99775.25;4967782;28;20061;-73
2023/03/06 03:43:50;;;;;;;2.78;0.20;;;;;;;-2.72;62.09;99778.66;4967979;28;20691;-73
2023/03/06 03:46:17;;;;;;;1.00;0.20;;;;;;;-2.73;61.79;99763.31;4970601;28;20047;-68
2023/03/06 03:48:44;;;;;;;0.40;0.10;;;;;;;-2.74;62.01;99766.66;4971355;28;20043;-68
2023/03/06 03:51:15;;;;;;;0.40;0.10;;;;;;;-2.79;62.12;99765.72;4967964;28;20050;-68
2023/03/06 03:53:43;;;;;;;1.35;0.15;;;;;;;-2.75;62.21;99770.06;4969713;28;20082;-68
2023/03/06 03:56:10;;;;;;;0.63;0.10;;;;;;;-2.77;61.89;99764.06;4970443;28;20073;-68
2023/03/06 03:58:37;;;;;;;0.63;0.20;;;;;;;-2.78;62.06;99764.91;4966060;28;20042;-68
2023/03/06 04:01:04;;;;;;;0.50;0.30;;;;;;;-2.78;61.87;99765.75;4970643;28;20057;-68
2023/03/06 04:03:31;;;;;;;0.93;0.20;;;;;;;-2.79;62.13;99755.50;4968667;28;20082;-68
2023/03/06 04:05:58;;;;;;;1.55;0.20;;;;;;;-2.85;62.15;99751.13;4971116;28;20047;-68
2023/03/06 04:08:27;;;;;;;0.90;0.22;;;;;;;-2.83;62.02;99757.13;4970254;28;20058;-68
2023/03/06 04:10:55;;;;;;;0.47;0.10;;;;;;;-2.86;62.02;99748.56;4968542;28;20050;-67
2023/03/06 04:13:22;;;;;;;0.95;0.15;;;;;;;-2.83;62.02;99757.13;4969213;28;20517;-68
2023/03/06 04:15:51;;;;;;;0.50;0.10;;;;;;;-2.82;61.93;99758.84;4969966;28;20055;-68
2023/03/06 04:18:19;;;;;;;0.38;0.17;;;;;;;-2.83;62.37;99761.38;4968831;28;20415;-68
2023/03/06 04:20:47;;;;;;;0.20;0.13;;;;;;;-2.84;62.48;99757.97;4969990;28;20050;-68
2023/03/06 04:23:15;;;;;;;0.40;0.20;;;;;;;-2.83;61.95;99763.94;4969352;28;20042;-68
2023/03/06 04:25:43;;;;;;;0.30;0.13;;;;;;;-2.87;62.15;99747.69;4968982;28;20058;-68
2023/03/06 04:28:11;;;;;;;0.55;0.20;;;;;;;-2.85;62.48;99755.38;4969193;28;20043;-68
2023/03/06 04:30:38;;;;;;;0.35;0.10;;;;;;;-2.86;62.49;99751.13;4970199;28;20049;-68
2023/03/06 04:33:05;;;;;;;1.23;0.17;;;;;;;-2.86;61.98;99758.78;4969793;28;20050;-68
2023/03/06 04:35:32;;;;;;;0.70;0.20;;;;;;;-2.87;62.87;99754.50;4970699;28;20062;-68
2023/03/06 04:37:59;;;;;;;1.52;0.10;;;;;;;-2.87;62.29;99752.81;4970419;28;20459;-68
2023/03/06 04:40:28;;;;;;;0.80;0.10;;;;;;;-2.90;62.38;99739.09;4970110;28;20472;-68
2023/03/06 04:42:57;;;;;;;0.85;0.10;;;;;;;-2.87;62.36;99752.81;4968662;28;20094;-68
2023/03/06 04:45:24;;;;;;;0.28;0.10;;;;;;;-2.87;62.25;99746.84;4971059;28;20054;-68
2023/03/06 04:47:51;;;;;;;0.30;0.10;;;;;;;-2.86;62.38;99746.00;4967585;28;20483;-68
2023/03/06 04:50:19;;;;;;;0.20;0.10;;;;;;;-2.90;62.29;99746.75;4968269;28;20116;-68
2023/03/06 04:52:46;;;;;;;0.57;0.10;;;;;;;-2.87;62.17;99745.16;4968889;28;20039;-68
2023/03/06 04:55:15;;;;;;;0.30;0.10;;;;;;;-2.88;62.40;99743.41;4967255;28;20066;-68
2023/03/06 04:57:44;;;;;;;0.40;0.15;;;;;;;-2.86;62.50;99748.56;4969708;28;20053;-68
2023/03/06 05:00:17;;;;;;;0.75;0.20;;;;;;;-2.87;62.35;99749.41;4969259;28;20055;-68
2023/03/06 05:02:44;;;;;;;0.85;0.20;;;;;;;-2.88;62.36;99745.97;4969027;28;20065;-69
2023/03/06 05:05:12;;;;;;;0.43;0.20;;;;;;;-2.89;62.78;99748.50;4968118;28;20054;-68
2023/03/06 05:07:39;;;;;;;1.13;0.35;;;;;;;-2.93;62.50;99745.03;4969808;28;20051;-68
2023/03/06 05:10:08;;;;;;;3.25;0.20;;;;;;;-2.92;62.54;99749.31;4969381;28;20491;-68
2023/03/06 05:12:36;;;;;;;0.70;0.40;;;;;;;-2.92;62.61;99745.88;4967631;28;20063;-68
2023/03/06 05:15:03;;;;;;;1.52;0.10;;;;;;;-2.92;62.27;99751.00;4967660;28;20142;-68
2023/03/06 05:17:32;;;;;;;1.85;0.10;;;;;;;-2.95;62.11;99745.00;4969427;28;20058;-68
2023/03/06 05:19:59;;;;;;;0.10;0.10;;;;;;;-2.93;62.32;99750.16;4969147;28;20050;-69
2023/03/06 05:22:26;;;;;;;0.50;0.10;;;;;;;-2.94;62.44;99750.97;4968193;28;20063;-70
2023/03/06 05:24:53;;;;;;;0.40;0.20;;;;;;;-2.96;62.61;99745.84;4967678;28;20097;-69
2023/03/06 05:27:20;;;;;;;0.40;0.17;;;;;;;-2.95;62.27;99752.66;4968019;28;20051;-69
2023/03/06 05:29:47;;;;;;;0.35;0.15;;;;;;;-2.96;62.62;99748.38;4968909;28;20049;-69
2023/03/06 05:32:15;;;;;;;3.83;0.10;;;;;;;-2.95;62.33;99747.53;4968259;28;20065;-69
2023/03/06 05:34:43;;;;;;;0.35;0.10;;;;;;;-2.96;62.50;99743.28;4969100;28;20415;-68
2023/03/06 05:37:10;;;;;;;0.52;0.10;;;;;;;-2.97;62.38;99741.53;4965315;28;20038;-70
2023/03/06 05:39:37;;;;;;;0.17;0.10;;;;;;;-2.98;62.33;99738.97;4959431;28;20491;-69
2023/03/06 05:42:04;;;;;;;2.05;0.17;;;;;;;-2.99;62.64;99747.44;4968446;28;20051;-69
2023/03/06 05:44:32;;;;;;;0.75;0.13;;;;;;;-3.00;62.18;99740.63;4956359;28;20051;-68
2023/03/06 05:46:59;;;;;;;0.28;0.10;;;;;;;-3.22;62.45;99706.97;4951987;28;20110;-68
2023/03/06 05:49:26;;;;;;;2.75;0.32;;;;;;;-3.07;62.53;99736.25;4946225;28;20066;-69
2023/03/06 05:51:54;;;;;;;2.85;0.20;;;;;;;-3.04;62.52;99744.81;4967899;28;20046;-69
2023/03/06 05:54:23;;;;;;;1.92;0.20;;;;;;;-3.04;62.23;99747.38;4962804;28;20043;-69
2023/03/06 05:56:50;;;;;;;0.30;0.10;;;;;;;-3.04;62.46;99749.94;4963620;28;20679;-68
2023/03/06 05:59:17;;;;;;;0.32;0.10;;;;;;;-3.05;62.33;99742.22;4964591;28;20050;-68
2023/03/06 06:01:44;;;;;;;2.05;0.22;;;;;;;-3.06;62.27;99745.63;4966884;28;20483;-68
2023/03/06 06:04:11;;;;;;;1.10;0.20;;;;;;;-3.07;62.46;99746.47;4961897;28;20530;-68
2023/03/06 06:06:39;;;;;;;0.20;0.10;;;;;;;-3.08;62.58;99745.56;4944070;28;20059;-69
2023/03/06 06:09:08;;;;;;;1.00;0.20;;;;;;;-3.10;62.58;99744.72;4964179;28;20992;-69
2023/03/06 06:11:35;;;;;;;2.92;0.20;;;;;;;-3.11;62.57;99739.53;4972028;28;20046;-69
2023/03/06 06:14:02;;;;;;;0.40;0.20;;;;;;;-3.11;62.44;99734.44;4962124;28;20435;-69
2023/03/06 06:16:30;;;;;;;0.77;0.13;;;;;;;-3.12;62.49;99742.94;4962095;28;20059;-69
2023/03/06 06:18:57;;;;;;;0.30;0.13;;;;;;;-3.11;62.79;99753.19;4959280;28;20050;-69
2023/03/06 06:21:24;;;;;;;2.15;0.17;;;;;;;-3.10;62.41;99760.03;4962379;28;20676;-69
2023/03/06 06:23:53;;;;;;;0.10;0.10;;;;;;;-3.09;62.49;99748.97;4960492;28;20042;-69
2023/03/06 06:26:21;;;;;;;1.45;1.10;;;;;;;-3.18;62.53;99744.53;4967193;28;20058;-69
2023/03/06 06:28:48;;;;;;;1.85;0.20;;;;;;;-3.11;62.10;99748.06;4967197;28;20050;-69
2023/03/06 06:31:15;;;;;;;1.55;0.10;;;;;;;-3.09;62.37;99758.34;4967603;28;20073;-68
2023/03/06 06:33:42;;;;;;;0.20;0.10;;;;;;;-3.13;62.73;99744.66;4959344;28;20125;-69
2023/03/06 06:36:16;;;;;;;0.40;0.20;;;;;;;-3.08;62.57;99752.38;4963268;28;20077;-69
2023/03/06 06:38:43;;;;;;;1.20;0.10;;;;;;;-3.06;62.67;99756.69;4969832;28;20047;-69
2023/03/06 06:41:10;;;;;;;0.60;0.10;;;;;;;-3.06;62.30;99754.13;4961429;28;20427;-69
2023/03/06 06:43:38;;;;;;;0.28;0.10;;;;;;;-3.06;62.43;99746.47;4969584;28;20094;-69
2023/03/06 06:46:05;;;;;;;0.32;0.17;;;;;;;-3.02;62.43;99753.34;4968954;28;20495;-69
2023/03/06 06:48:32;;;;;;;0.60;0.20;;;;;;;-3.01;62.70;99754.25;4960488;28;20055;-69
2023/03/06 06:50:59;;;;;;;1.63;0.20;;;;;;;-3.00;62.50;99756.81;4970293;28;20050;-69
2023/03/06 06:53:26;;;;;;;0.22;0.10;;;;;;;-2.98;62.75;99760.25;4967696;28;20046;-69
2023/03/06 06:55:53;;;;;;;0.30;0.10;;;;;;;-2.96;63.00;99758.59;4971100;28;20043;-69
2023/03/06 06:58:20;;;;;;;0.73;0.10;;;;;;;-2.97;62.67;99756.00;4970184;28;20061;-69
2023/03/06 07:00:48;;;;;;;0.30;0.17;;;;;;;-2.91;62.77;99762.94;4969657;28;20047;-70
2023/03/06 07:03:15;;;;;;;1.52;0.15;;;;;;;-2.89;62.90;99769.81;4956578;28;20065;-69
2023/03/06 07:05:42;;;;;;;2.22;0.17;;;;;;;-2.86;62.81;99769.00;4971293;28;20047;-69
2023/03/06 07:08:09;;;;;;;0.22;0.10;;;;;;;-2.84;62.85;99773.31;4960552;28;20047;-69
2023/03/06 07:10:38;;;;;;;2.10;0.20;;;;;;;-2.82;63.05;99770.78;4971488;28;20061;-69
2023/03/06 07:13:05;;;;;;;0.15;0.10;;;;;;;-2.77;63.00;99769.16;4957928;28;20058;-69
2023/03/06 07:15:32;;;;;;;0.10;0.10;;;;;;;-2.74;63.32;99764.13;4962363;28;20975;-69
2023/03/06 07:18:00;;;;;;;0.57;0.10;;;;;;;-2.68;63.15;99777.00;4967540;28;20054;-70
2023/03/06 07:20:27;;;;;;;0.30;0.10;;;;;;;-2.66;63.19;99767.69;4964027;28;20050;-70
2023/03/06 07:22:54;;;;;;;0.20;0.17;;;;;;;-2.66;63.32;99765.13;4960008;28;20057;-70
2023/03/06 07:25:21;;;;;;;2.42;0.20;;;;;;;-2.64;63.25;99760.91;4972025;28;20050;-70
2023/03/06 07:27:51;;;;;;;1.55;0.20;;;;;;;-2.53;63.57;99768.78;4963833;28;20538;-69
2023/03/06 07:30:19;;;;;;;0.38;0.10;;;;;;;-2.53;63.62;99756.84;4967092;28;20762;-69
2023/03/06 07:32:45;;;;;;;0.40;0.20;;;;;;;-2.44;63.22;99765.53;4965543;28;20049;-69
2023/03/06 07:35:17;;;;;;;0.30;0.10;;;;;;;-2.38;63.25;99769.03;4958916;28;21025;-70
2023/03/06 07:37:44;;;;;;;0.52;0.10;;;;;;;-2.34;63.54;99765.69;4972227;28;20050;-69
2023/03/06 07:40:12;;;;;;;3.72;0.15;;;;;;;-2.28;63.27;99770.06;4971354;28;20411;-70
2023/03/06 07:42:39;;;;;;;1.15;0.15;;;;;;;-2.27;63.32;99766.69;4972182;28;20047;-69
2023/03/06 07:45:07;;;;;;;0.10;0.10;;;;;;;-2.19;63.36;99775.34;4968442;28;20050;-70
2023/03/06 07:47:35;;;;;;;0.47;0.10;;;;;;;-2.17;63.32;99765.97;4962575;28;20051;-69
2023/03/06 07:50:04;;;;;;;0.30;0.20;;;;;;;-2.13;63.25;99770.31;4968184;28;20503;-70
2023/03/06 07:52:32;;;;;;;0.55;0.20;;;;;;;-2.04;62.89;99778.16;4968530;28;20094;-69
2023/03/06 07:54:59;;;;;;;2.58;0.13;;;;;;;-2.00;63.21;99779.06;4971319;28;20055;-70
2023/03/06 07:57:26;;;;;;;0.50;0.13;;;;;;;-1.96;63.26;99787.66;4970354;28;20061;-69
2023/03/06 07:59:53;;;;;;;0.10;0.10;;;;;;;-1.92;63.24;99786.84;4965875;28;20108;-70
2023/03/06 08:02:20;;;;;;;2.33;0.15;;;;;;;-1.89;63.05;99781.78;4962660;28;20058;-70
2023/03/06 08:04:53;;;;;;;0.13;0.10;;;;;;;-1.90;62.84;99778.38;4963965;28;20055;-70
2023/03/06 08:07:20;;;;;;;0.70;0.30;;;;;;;-1.84;63.23;99783.59;4968943;28;20050;-69
2023/03/06 08:09:49;;;;;;;1.95;0.20;;;;;;;-1.80;63.21;99789.59;4961091;28;20104;-69
2023/03/06 08:12:16;;;;;;;0.93;0.20;;;;;;;-1.76;63.28;99796.50;4971432;28;20066;-70
2023/03/06 08:14:43;;;;;;;0.65;0.25;;;;;;;-1.71;63.29;99791.44;4965291;28;20054;-70
2023/03/06 08:17:10;;;;;;;2.28;0.28;;;;;;;-1.72;63.30;99790.59;4961869;28;20490;-70
2023/03/06 08:19:37;;;;;;;1.58;0.10;;;;;;;-1.67;63.13;99795.78;4965438;28;20046;-70
2023/03/06 08:22:04;;;;;;;0.15;0.10;;;;;;;-1.65;63.18;99794.97;4971093;28;20050;-70
2023/03/06 08:24:33;;;;;;;0.35;0.20;;;;;;;-1.60;63.23;99798.44;4957492;28;20043;-69
2023/03/06 08:27:01;;;;;;;0.90;0.10;;;;;;;-1.57;63.07;99789.94;4964266;28;20070;-70
2023/03/06 08:29:28;;;;;;;0.68;0.20;;;;;;;-1.61;63.07;99785.63;4969462;28;20447;-69
2023/03/06 08:31:55;;;;;;;3.67;0.20;;;;;;;-1.49;63.37;99795.19;4967703;28;20043;-70
2023/03/06 08:34:24;;;;;;;0.20;0.10;;;;;;;-1.54;62.95;99782.31;4969421;28;20053;-70
2023/03/06 08:36:51;;;;;;;4.70;0.73;;;;;;;-1.54;63.42;99778.88;4967473;28;20055;-70
2023/03/06 08:39:19;;;;;;;0.47;0.20;;;;;;;-1.37;62.88;99800.47;4968159;28;20050;-70
2023/03/06 08:41:46;;;;;;;0.32;0.28;;;;;;;-1.34;63.05;99805.63;4957299;28;21855;-70
2023/03/06 08:44:15;;;;;;;2.50;0.20;;;;;;;-1.31;63.14;99812.50;4970173;28;20093;-70
2023/03/06 08:46:42;;;;;;;0.57;0.10;;;;;;;-1.28;63.03;99815.13;4960510;28;20046;-69
2023/03/06 08:49:09;;;;;;;4.90;0.82;;;;;;;-1.29;62.89;99806.56;4959306;28;20062;-69
2023/03/06 08:51:36;;;;;;;1.13;1.02;;;;;;;-1.23;63.25;99818.59;4970334;28;20062;-69
2023/03/06 08:54:04;;;;;;;0.98;0.20;;;;;;;-1.20;63.29;99822.06;4959858;28;20054;-70
2023/03/06 08:56:35;;;;;;;2.35;0.30;;;;;;;-1.17;63.06;99829.81;4968974;28;20058;-69
2023/03/06 08:59:04;;;;;;;0.30;0.10;;;;;;;-1.14;62.97;99829.88;4960518;28;20491;-70
2023/03/06 09:01:35;;;;;;;0.73;0.20;;;;;;;-1.13;62.80;99834.13;4960711;28;20046;-69
2023/03/06 09:04:05;;;;;;;0.88;0.20;;;;;;;-1.09;63.17;99832.47;4969423;28;20487;-70
2023/03/06 09:06:36;;;;;;;1.75;0.20;;;;;;;-1.05;62.83;99828.22;4966119;28;20125;-70
2023/03/06 09:09:04;;;;;;;0.95;0.20;;;;;;;-1.02;62.48;99828.31;4967677;28;20056;-70
2023/03/06 09:11:31;;;;;;;0.20;0.10;;;;;;;-0.98;62.59;99830.06;4964032;28;20051;-70
2023/03/06 09:13:58;;;;;;;1.50;0.40;;;;;;;-1.03;62.78;99818.88;4960541;28;20058;-70
2023/03/06 09:16:26;;;;;;;0.30;0.10;;;;;;;-0.93;62.71;99825.84;4967038;28;20378;-69
2023/03/06 09:18:54;;;;;;;0.90;0.00;;;;;;;-0.90;62.29;99831.00;4961339;28;20062;-70
2023/03/06 09:21:22;;;;;;;0.70;0.10;;;;;;;-0.86;62.87;99829.34;4966939;28;20142;-69
2023/03/06 09:23:49;;;;;;;0.60;0.20;;;;;;;-0.84;62.63;99817.41;4959664;28;20066;-70
2023/03/06 09:26:16;;;;;;;3.72;0.35;;;;;;;-0.78;62.42;99825.19;4969118;28;20058;-70
2023/03/06 09:28:43;;;;;;;1.35;0.10;;;;;;;-0.77;62.35;99827.78;4966556;28;20047;-69
2023/03/06 09:31:11;;;;;;;0.35;0.20;;;;;;;-0.72;62.53;99818.41;4961108;28;20066;-70
2023/03/06 09:33:39;;;;;;;0.85;0.10;;;;;;;-0.72;62.32;99823.53;4969055;28;20055;-70
2023/03/06 09:36:10;;;;;;;1.00;0.85;;;;;;;-0.65;62.09;99821.91;4966206;28;20051;-70
2023/03/06 09:38:37;;;;;;;0.28;0.10;;;;;;;-0.60;62.36;99824.53;4957918;28;20054;-70
2023/03/06 09:41:11;;;;;;;0.55;0.30;;;;;;;-0.58;62.53;99828.81;4970085;28;20050;-70
2023/03/06 09:43:42;;;;;;;1.15;0.20;;;;;;;-0.56;62.55;99834.00;4965927;28;20113;-69
2023/03/06 09:46:19;;;;;;;0.32;0.10;;;;;;;-0.56;62.20;99828.84;4957446;28;20561;-70
2023/03/06 09:49:00;;;;;;;0.30;0.10;;;;;;;-0.53;62.39;99832.31;4959320;28;20491;-69
2023/03/06 09:51:36;;;;;;;11.50;0.90;;;;;;;-0.51;62.58;99832.34;4969731;28;20061;-70
2023/03/06 09:54:12;;;;;;;0.47;0.10;;;;;;;-0.51;62.03;99827.22;4963986;28;20058;-70
2023/03/06 09:56:44;;;;;;;3.15;0.10;;;;;;;-0.45;61.81;99827.28;4968307;28;20109;-69
2023/03/06 09:59:16;;;;;;;0.82;0.10;;;;;;;-0.38;62.07;99835.88;4965561;28;20058;-70
2023/03/06 10:01:50;;;;;;;0.85;0.10;;;;;;;-0.35;61.96;99838.47;4957428;28;20058;-70
2023/03/06 10:04:34;;;;;;;0.30;0.10;;;;;;;-0.32;62.01;99838.50;4968547;28;20130;-69
2023/03/06 10:07:11;;;;;;;1.25;0.13;;;;;;;-0.37;61.58;99828.22;4969740;28;20051;-69
2023/03/06 10:09:45;;;;;;;1.85;0.20;;;;;;;-0.27;61.61;99834.28;4957004;28;20530;-70
2023/03/06 10:12:24;;;;;;;2.25;0.10;;;;;;;-0.28;61.29;99838.56;4968825;28;20495;-70
2023/03/06 10:15:02;;;;;;;1.52;0.13;;;;;;;-0.22;61.64;99844.63;4956382;28;20051;-70
2023/03/06 10:17:36;;;;;;;1.40;0.52;;;;;;;-0.21;61.86;99838.63;4965454;28;20066;-70
2023/03/06 10:20:17;;;;;;;2.47;0.10;;;;;;;-0.20;61.57;99841.19;4969207;28;20157;-70
2023/03/06 10:22:53;;;;;;;1.10;0.35;;;;;;;-0.21;61.84;99834.34;4967519;28;20484;-70
2023/03/06 10:25:26;;;;;;;1.08;0.10;;;;;;;-0.22;61.05;99834.34;4966825;28;20080;-70
2023/03/06 10:27:59;;;;;;;1.17;0.00;;;;;;;-0.16;61.52;99844.69;4959150;28;20050;-70
2023/03/06 10:30:38;;;;;;;0.08;0.08;;;;;;;-0.13;61.42;99847.28;4965775;28;20043;-70
2023/03/06 10:33:09;;;;;;;0.40;0.10;;;;;;;-0.10;61.12;99844.72;4967941;28;20051;-70
2023/03/06 10:35:47;;;;;;;0.32;0.10;;;;;;;-0.09;61.63;99846.44;4967434;28;20094;-70
2023/03/06 10:38:19;;;;;;;0.20;0.08;;;;;;;-0.06;61.25;99846.47;4964948;28;20054;-70
2023/03/06 10:40:57;;;;;;;0.90;0.10;;;;;;;-0.06;61.31;99856.75;4955900;28;20043;-70
2023/03/06 10:43:24;;;;;;;0.57;0.10;;;;;;;-0.14;61.22;99833.59;4963985;28;20039;-70
2023/03/06 10:45:52;;;;;;;0.17;0.10;;;;;;;-0.02;61.38;99854.22;4959306;28;20053;-70
2023/03/06 10:48:22;;;;;;;1.30;0.10;;;;;;;0.01;61.29;99850.84;4957974;28;20047;-70
2023/03/06 10:50:49;;;;;;;0.20;0.10;;;;;;;0.01;61.09;99853.41;4967895;28;20410;-70
2023/03/06 10:53:27;;;;;;;1.38;0.10;;;;;;;0.07;60.88;99852.59;4962142;28;20420;-70
2023/03/06 10:55:58;;;;;;;1.55;0.20;;;;;;;0.10;61.23;99856.03;4968343;28;20591;-70
2023/03/06 10:58:27;;;;;;;0.32;0.10;;;;;;;0.08;60.98;99844.88;4971346;28;20050;-70
2023/03/06 11:01:03;;;;;;;2.08;0.20;;;;;;;0.16;61.03;99847.53;4960828;28;20062;-70
2023/03/06 11:03:30;;;;;;;0.30;0.10;;;;;;;0.08;61.00;99828.63;4969771;28;20058;-69
2023/03/06 11:06:11;;;;;;;0.88;0.15;;;;;;;0.21;60.99;99851.88;4971920;28;20050;-70
2023/03/06 11:08:40;;;;;;;0.20;0.10;;;;;;;0.26;60.59;99841.66;4962470;28;20062;-70
2023/03/06 11:11:11;;;;;;;0.20;0.10;;;;;;;0.30;61.42;99850.22;4966094;28;20054;-70
2023/03/06 11:13:40;;;;;;;0.13;0.10;;;;;;;0.33;61.29;99845.09;4966079;28;20058;-70
2023/03/06 11:16:18;;;;;;;0.20;0.10;;;;;;;0.37;60.72;99849.41;4961735;28;20055;-70
2023/03/06 11:18:56;;;;;;;0.00;0.00;;;;;;;0.36;60.47;99847.69;4970738;28;20057;-70
2023/03/06 11:21:29;;;;;;;0.30;0.10;;;;;;;0.45;61.28;99848.63;4969758;28;20459;-70
2023/03/06 11:24:04;;;;;;;0.10;0.10;;;;;;;0.48;60.69;99846.94;4967137;28;20054;-69
2023/03/06 11:26:36;;;;;;;2.00;0.17;;;;;;;0.48;60.88;99850.34;4967000;28;20061;-70
2023/03/06 11:29:18;;;;;;;0.35;0.15;;;;;;;0.54;60.78;99850.44;4969935;28;20062;-70
2023/03/06 11:31:51;;;;;;;0.52;0.10;;;;;;;0.59;60.90;99858.16;4957944;28;20051;-70
2023/03/06 11:34:23;;;;;;;0.20;0.10;;;;;;;0.62;60.15;99859.03;4965632;28;20051;-70
2023/03/06 11:36:56;;;;;;;0.80;0.10;;;;;;;0.66;60.86;99854.78;4957638;28;20051;-70
2023/03/06 11:39:34;;;;;;;1.00;0.10;;;;;;;0.71;60.47;99862.50;4959885;28;20047;-70
2023/03/06 11:42:11;;;;;;;0.95;0.10;;;;;;;0.73;60.55;99860.81;4969375;28;20050;-70